Terminal Aerodrome Forecast
Issued by NWS Duluth, MN

Home | Current Version | Previous Version | Text Only | Print | Product List | Glossary On
Versions: 1 2 3 4 5 6 7 8 9 10 11 12 13 14 15 16 17 18 19 20 21 22 23 24 25 26 27 28 29
000
FTUS43 KDLH 190500
TAFINL
TAF
KINL 190520Z 1906/2006 18005KT P6SM SCT100
     FM190900 17008KT P6SM FEW022 BKN180
     FM191200 18009KT P6SM SCT018 BKN050 OVC090
     FM191800 25012KT P6SM SCT050
     FM200400 32010KT P6SM BKN050=

USA.gov is the U.S. government's official web portal to all federal, state and local government web resources and services.